Погода Унаина 2 недели

Минас-Жерайс, Бразилия

26 февраля-09 марта
  • 26февраля
    Сегодня
    +20°
    +33°
    Облачно с прояснениями
    ВремяПогодаТемператураВлажностьДавлениеВетер, м/сВероятность осадков
    00:00Ясно и безоблачно+23°C85 %710 мм0.2 м/с5 %
    03:00Ясно и безоблачно+21°C93 %710 мм1.4 м/с5 %
    06:00Ясно и безоблачно+20°C95 %710 мм1.7 м/с2 %
    09:00Ясно и безоблачно+27°C62 %713 мм1.5 м/с2 %
    12:00Практически безоблачно+29°C51 %712 мм2.1 м/с5 %
    15:00Облачно с прояснениями+32°C44 %710 мм3.3 м/с6 %
    18:00Небольшая облачность+27°C60 %708 мм1.6 м/с5 %
    21:00Ясно и безоблачно+28°C65 %710 мм0.7 м/с4 %
  • 27февраля
    Вторник
    +20°
    +34°
    Облачно с прояснениями
    ВремяПогодаТемператураВлажностьДавлениеВетер, м/сВероятность осадков
    00:00Практически безоблачно+22°C76 %709 мм1.4 м/с2 %
    03:00Облачно с прояснениями+22°C77 %708 мм1.0 м/с3 %
    06:00Ясно и безоблачно+19°C87 %709 мм0.3 м/с5 %
    09:00Небольшая облачность+26°C66 %711 мм0.3 м/с5 %
    12:00Облачно с прояснениями+30°C52 %710 мм1.7 м/с12 %
    15:00Облачно с прояснениями+34°C42 %708 мм0.8 м/с23 %
    18:00Практически безоблачно+30°C57 %707 мм0.6 м/с26 %
    21:00Практически безоблачно+29°C73 %709 мм1.7 м/с21 %
  • 28февраля
    Среда
    +22°
    +35°
    Облачно с прояснениями
    ВремяПогодаТемператураВлажностьДавлениеВетер, м/сВероятность осадков
    00:00Ясно и безоблачно+22°C77 %709 мм0.9 м/с14 %
    03:00Ясно и безоблачно+21°C83 %708 мм1.5 м/с12 %
    06:00Ясно и безоблачно+19°C86 %708 мм1.5 м/с10 %
    09:00Облачно с прояснениями+27°C64 %710 мм1.3 м/с10 %
    12:00Облачно с прояснениями+31°C45 %710 мм1.1 м/с20 %
    15:00Облачно с прояснениями+35°C40 %708 мм0.4 м/с29 %
    18:00Ясно и безоблачно+30°C57 %707 мм1.6 м/с36 %
    21:00Небольшая облачность+29°C71 %708 мм1.7 м/с31 %
  • 29февраля
    Четверг
    +23°
    +36°
    Облачно с прояснениями
    ВремяПогодаТемператураВлажностьДавлениеВетер, м/сВероятность осадков
    00:00Небольшая облачность+24°C81 %709 мм1.5 м/с21 %
    03:00Практически безоблачно+23°C81 %708 мм1.6 м/с9 %
    06:00Небольшая облачность+22°C88 %708 мм1.5 м/с6 %
    09:00Облачно с прояснениями+28°C67 %710 мм1.7 м/с14 %
    12:00Небольшая облачность+32°C43 %710 мм1.1 м/с22 %
    15:00Облачно с прояснениями+35°C40 %708 мм0.8 м/с17 %
    18:00Практически безоблачно+31°C57 %706 мм1.3 м/с18 %
    21:00Облачно с прояснениями+29°C69 %708 мм1.7 м/с14 %
Мы используем cookies
Соглашаюсь